Pueblo Army Depot, Colorado
Current Conditions -  °F | °C
As of 2:53 AM on Thursday 18 Dec 2014 (Local Time) from KPUB Reporting Station
Clear Clear  
Wind Chill: 12°   Ceiling: Unl
Heat Index: 21°   Visibility: 8mi
Dew Point: 20°   Wind: 7mph
Humidity: 96%   Direction: 280°W
Pressure: 30.01"   Gusts: NA
Location:  38.2964°N, 104.538°W
Report Text: KPUB 180953Z AUTO 28006KT 8SM CLR M06/M07 A3001 RMK AO2 SLP189 T10611067
Loading
Personal Weather Stations






























Interactive Weather Map New forecast layout! Learn more

10-Day Weather Forecast

Advertisements
Track Severe Weather on mobile